AirNav   Air Wisconsin pilot careers
 
 306 users online  

A30 Scott Valley Airport
Fort Jones, California, USA

GOING TO FORT JONES?


FAA INFORMATION EFFECTIVE 12 OCTOBER 2017

Location

FAA Identifier: A30
Lat/Long: 41-33-28.0000N / 122-51-17.8000W
41-33.466667N / 122-51.296667W
41.5577778 / -122.8549444
(estimated)
Elevation: 2728 ft. / 831.5 m (surveyed)
Variation: 18E (1985)
From city: 3 miles S of FORT JONES, CA
Time zone: UTC -7 (UTC -8 during Standard Time)
Zip code: 96027

Airport Operations

Airport use: Open to the public
Activation date: 12/1949
Control tower: no
ARTCC: SEATTLE CENTER
FSS: RANCHO MURIETA FLIGHT SERVICE STATION
NOTAMs facility: RIU (NOTAM-D service available)
Attendance: UNATNDD
Pattern altitude: 3528 ft. MSL
Wind indicator: lighted
Segmented circle: yes
Lights: ACTVT MIRL RWY 16/34 - CTAF.
Beacon: white-green (lighted land airport)
Operates sunset to sunrise.

Airport Communications

CTAF/UNICOM: 122.8
  • OPN NOT CONTINUOUS; LOCATED IN PILOT LOUNGE.

Nearby radio navigation aids

VOR radial/distance  VOR name  Freq  Var
FJSr322/6.8FORT JONES VOR/DME109.6019E

 
NDB name  Hdg/Dist  Freq  Var  ID
MONTAGUE224/19.640415EMOG -- --- --.

Airport Services

Fuel available: 100LL
Parking: tiedowns
Airframe service: NONE
Powerplant service: NONE
Bottled oxygen: NONE
Bulk oxygen: NONE

Runway Information

Runway 16/34

Dimensions: 3700 x 50 ft. / 1128 x 15 m
Surface: asphalt, in good condition
Weight bearing capacity: 
Single wheel: 12.0
Runway edge lights: medium intensity
RUNWAY 16  RUNWAY 34
Latitude: 41-33.771000N41-33.162833N
Longitude: 122-51.322667W122-51.272333W
Gradient: 0.1%0.1%
Traffic pattern: rightleft
Displaced threshold: no200 ft.
Markings: basic, in good conditionbasic, in good condition
Runway end identifier lights: nono
Obstructions: 25 ft. tree, 710 ft. from runway, 160 ft. left of centerline, 20:1 slope to clearnone
+4 FT FENCE 360 FT FM DISP THLD 160 FT FM EOR.

Airport Ownership and Management from official FAA records

Ownership: Publicly-owned
Owner: COUNTY OF SISKIYOU
190 GREENHORN ROAD
YREKA, CA 96097
Phone (530) 842-8220
Manager: MELISSA CUMMINS
190 GREENHORN ROAD
YREKA, CA 96097
Phone (530) 842-8220
COUNTY DIR OF ARPTS OFFICE IN YREKA.

Airport Operational Statistics

Aircraft based on the field: 17
Single engine airplanes: 16
Ultralights: 1
  • U.S. FOREST SVC HELICOPTER MAY THRU SEP.
    
Aircraft operations: avg 22/day *
62% transient general aviation
37% local general aviation
1% air taxi
* for 12-month period ending 31 December 2016

Additional Remarks

E93 USFC HELIPORT. OPERATES FIRE SEASON ONLY.
U.S. FOREST SVC FIRE ACTIVITY MAY THRU SEP.

Instrument Procedures

There are no published instrument procedures at A30.

Some nearby airports with instrument procedures:

O46 - Weed Airport (19 nm E)
KSIY - Siskiyou County Airport (22 nm NE)
KMFR - Rogue Valley International - Medford Airport (49 nm N)
KLMT - Crater Lake-Klamath Regional Airport (62 nm NE)
3S8 - Grants Pass Airport (62 nm N)
 
Loc | Ops | Rwys | IFR | FBO | Links
Com | Nav | Svcs | Stats | Notes


 
Area around A30 (Scott Valley Airport)
 
Road maps at: MapQuest Bing Google
 
Aerial photo
WARNING: Photo may not be current or correct
Aerial photo of A30 (Scott Valley Airport)
Photo courtesy of Siskiyou Air Service, Inc.
Photo taken 07-May-2007
looking North

Do you have a better or more recent aerial photo of Scott Valley Airport that you would like to share? If so, please send us your photo.

 
Sectional chart

 
Airport distance calculator
Flying to Scott Valley Airport? Find the distance to fly.

From to A30

Sunrise and sunset
Times for 24-Oct-2017
 Local
(UTC-7)
 Zulu
(UTC)
Morning civil twilight07:0714:07
Sunrise07:3514:35
Sunset18:1601:16
Evening civil twilight18:4501:45

Current date and time
Zulu (UTC)  24-Oct-2017 08:52:31
Local (UTC-7)  24-Oct-2017 01:52:31
 
METAR
KSIY 
21nm NE 
240753Z AUTO VRB03KT 10SM CLR 07/06 A3050 RMK AO2 SLP337 T00720061 402110039
KMHS 
28nm SE 
240756Z AUTO 05003KT 10SM CLR 08/07 A3051 RMK AO2 SLPNO T00780067 402060067
KO86 
35nm S 
240835Z AUTO 00000KT 10SM 08/07 A3042 RMK AO1
S03 
39nm N 
SuperAWOS
240815Z AUTO 00000KT 3SM BR 09/09 A3044
TAF
KMFR 
50nm N 
240534Z 2406/2506 VRB03KT P6SM SKC FM241100 VRB02KT 2SM BR BKN005 FM241300 VRB02KT 1/2SM FG OVC003 FM241600 03002KT 2SM BR OVC007 FM241800 03003KT P6SM SCT008
NOTAMs
Click for the latest NOTAMs
NOTAMs are issued by the DoD/FAA and will open in a separate window not controlled by AirNav.

 

 
 

FBO, Fuel Providers, and Aircraft Ground Support

  
 Business Name 
 
 Contact 
 
 Services / Description 
 
Fuel Prices
 
Comments
  
Siskiyou Air Service 530-468-5490
no information available

If you are affiliated with Siskiyou Air Service and would like to show here your services, contact info, web link, logo, and more, click here
100LL
SS $5.50 
 Updated 20-Oct-2017
 
   write
SS=Self service
Update Fuel Prices
 

Would you like to see your business listed on this page?

 If your business provides an interesting product or service to pilots, flight crews, aircraft, or users of the Scott Valley Airport, you should consider listing it here.  To start the listing process, click on the button below
 
Add a business
 

Other Pages about Scott Valley Airport

www.co.siskiyou.ca.us/...
 
Update a link
 
Copyright © AirNav, LLC. All rights reserved. Privacy Policy  Contact